createdAt,value
2017-12-15T00:02:17.076Z,4.17
2017-12-15T00:04:44.998Z,5.33
2017-12-15T00:07:12.848Z,5.57
2017-12-15T00:09:40.724Z,7.63
2017-12-15T00:12:08.586Z,4.17
2017-12-15T00:14:36.531Z,6.70
2017-12-15T00:17:04.468Z,6.17
2017-12-15T00:19:32.353Z,13.13
2017-12-15T00:22:00.225Z,9.53
2017-12-15T00:24:28.190Z,8.23
2017-12-15T00:26:56.086Z,6.87
2017-12-15T00:29:23.947Z,15.80
2017-12-15T00:31:51.844Z,10.70
2017-12-15T00:34:19.708Z,7.93
2017-12-15T00:36:47.549Z,8.40
2017-12-15T00:39:15.450Z,6.73
2017-12-15T00:41:43.324Z,8.40
2017-12-15T00:44:11.182Z,7.50
2017-12-15T00:46:39.097Z,8.10
2017-12-15T00:49:07.023Z,10.27
2017-12-15T00:51:34.940Z,9.70
2017-12-15T00:54:02.849Z,13.47
2017-12-15T00:56:30.740Z,16.07
2017-12-15T00:58:58.613Z,9.77
2017-12-15T01:01:26.504Z,13.20
2017-12-15T01:03:54.359Z,15.73
2017-12-15T01:06:22.207Z,9.33
2017-12-15T01:08:50.083Z,11.90
2017-12-15T01:11:17.976Z,12.70
2017-12-15T01:13:45.815Z,9.03
2017-12-15T01:16:13.705Z,11.60
2017-12-15T01:18:41.575Z,13.67
2017-12-15T01:21:09.435Z,13.33
2017-12-15T01:23:37.323Z,15.33
2017-12-15T01:26:05.284Z,17.47
2017-12-15T01:28:33.159Z,17.50
2017-12-15T01:31:01.059Z,24.20
2017-12-15T01:33:29.001Z,18.60
2017-12-15T01:35:56.877Z,22.10
2017-12-15T01:38:24.744Z,21.83
2017-12-15T01:40:52.580Z,29.30
2017-12-15T01:43:20.449Z,28.13
2017-12-15T01:45:48.849Z,21.60
2017-12-15T01:48:16.687Z,24.10
2017-12-15T01:50:44.615Z,19.63
2017-12-15T01:53:12.491Z,21.33
2017-12-15T01:55:40.349Z,21.43
2017-12-15T01:58:08.218Z,19.30
2017-12-15T02:00:36.099Z,25.70
2017-12-15T02:03:03.983Z,15.17
2017-12-15T02:05:31.884Z,23.27
2017-12-15T02:07:59.764Z,22.00
2017-12-15T02:10:27.645Z,32.50
2017-12-15T02:12:55.479Z,18.67
2017-12-15T02:15:23.359Z,16.63
2017-12-15T02:17:51.204Z,18.40
2017-12-15T02:20:20.061Z,17.90
2017-12-15T02:22:47.944Z,13.40
2017-12-15T02:25:15.788Z,11.80
2017-12-15T02:27:43.680Z,14.20
2017-12-15T02:30:11.560Z,16.40
2017-12-15T02:32:38.438Z,12.83
2017-12-15T02:35:04.581Z,13.20
2017-12-15T02:37:30.752Z,14.83
2017-12-15T02:39:56.843Z,19.60
2017-12-15T02:42:23.680Z,12.20
2017-12-15T02:44:49.810Z,18.97
2017-12-15T02:47:15.922Z,11.60
2017-12-15T02:49:42.008Z,15.57
2017-12-15T02:52:08.187Z,13.67
2017-12-15T02:54:34.293Z,11.90
2017-12-15T02:57:00.511Z,13.33
2017-12-15T02:59:28.395Z,10.47
2017-12-15T03:01:56.230Z,10.37
2017-12-15T03:04:24.065Z,10.60
2017-12-15T03:06:51.965Z,7.87
2017-12-15T03:09:19.815Z,8.87
2017-12-15T03:11:47.674Z,9.60
2017-12-15T03:14:15.540Z,7.57
2017-12-15T03:16:43.452Z,7.20
2017-12-15T03:19:11.316Z,11.17
2017-12-15T03:21:39.186Z,9.23
2017-12-15T03:24:07.076Z,9.83
2017-12-15T03:26:34.908Z,6.70
2017-12-15T03:29:01.083Z,6.33
2017-12-15T03:31:27.201Z,6.83
2017-12-15T03:33:53.297Z,4.90
2017-12-15T03:36:20.220Z,5.90
2017-12-15T03:38:46.376Z,8.80
2017-12-15T03:41:12.471Z,12.30
2017-12-15T03:43:38.609Z,8.07
2017-12-15T03:46:04.739Z,7.90
2017-12-15T03:48:30.863Z,10.37
2017-12-15T03:50:56.989Z,5.57
2017-12-15T03:53:23.080Z,6.27
2017-12-15T03:55:49.197Z,8.83
2017-12-15T03:58:15.319Z,7.00
2017-12-15T04:00:41.440Z,6.47
2017-12-15T04:03:07.589Z,9.27
2017-12-15T04:05:33.736Z,8.53
2017-12-15T04:07:59.836Z,11.53
2017-12-15T04:10:26.680Z,7.73
2017-12-15T04:12:52.809Z,8.43
2017-12-15T04:15:18.948Z,6.60
2017-12-15T04:17:45.036Z,5.57
2017-12-15T04:20:11.201Z,7.87
2017-12-15T04:22:37.283Z,6.40
2017-12-15T04:25:04.152Z,7.10
2017-12-15T04:27:30.324Z,7.10
2017-12-15T04:29:56.476Z,7.70
2017-12-15T04:32:22.573Z,8.60
2017-12-15T04:34:48.680Z,12.10
2017-12-15T04:37:14.781Z,12.57
2017-12-15T04:39:40.909Z,10.27
2017-12-15T04:42:07.787Z,6.20
2017-12-15T04:44:33.885Z,13.20
2017-12-15T04:47:00.021Z,6.77
2017-12-15T04:49:26.212Z,12.70
2017-12-15T04:51:52.304Z,6.70
2017-12-15T04:54:18.408Z,7.67
2017-12-15T04:56:45.296Z,11.97
2017-12-15T04:59:11.397Z,6.53
2017-12-15T05:01:37.492Z,14.40
2017-12-15T05:04:03.654Z,9.80
2017-12-15T05:06:29.784Z,11.40
2017-12-15T05:08:55.882Z,9.17
2017-12-15T05:11:22.018Z,8.40
2017-12-15T05:13:48.138Z,11.40
2017-12-15T05:16:14.232Z,6.67
2017-12-15T05:18:40.377Z,8.57
2017-12-15T05:21:06.505Z,9.70
2017-12-15T05:23:32.608Z,11.90
2017-12-15T05:25:58.755Z,6.50
2017-12-15T05:28:24.853Z,8.33
2017-12-15T05:30:50.972Z,7.83
2017-12-15T05:33:17.104Z,11.73
2017-12-15T05:35:43.221Z,8.47
2017-12-15T05:38:09.317Z,10.23
2017-12-15T05:40:35.440Z,7.80
2017-12-15T05:43:01.589Z,11.27
2017-12-15T05:45:27.693Z,7.40
2017-12-15T05:47:53.822Z,10.23
2017-12-15T05:50:19.912Z,10.77
2017-12-15T05:52:46.044Z,8.77
2017-12-15T05:55:12.197Z,16.53
2017-12-15T05:57:38.334Z,10.27
2017-12-15T06:00:04.454Z,10.40
2017-12-15T06:02:31.336Z,6.70
2017-12-15T06:04:57.433Z,13.03
2017-12-15T06:07:23.508Z,10.53
2017-12-15T06:09:50.516Z,10.67
2017-12-15T06:12:16.613Z,11.40
2017-12-15T06:14:42.761Z,14.23
2017-12-15T06:17:08.901Z,11.93
2017-12-15T06:19:35.044Z,11.33
2017-12-15T06:22:01.180Z,16.97
2017-12-15T06:24:27.353Z,16.40
2017-12-15T06:26:53.545Z,11.67
2017-12-15T06:29:19.648Z,16.90
2017-12-15T06:31:46.565Z,19.43
2017-12-15T06:34:12.672Z,13.10
2017-12-15T06:36:38.773Z,16.87
2017-12-15T06:39:04.921Z,25.07
2017-12-15T06:41:31.770Z,27.97
2017-12-15T06:43:58.620Z,51.77
2017-12-15T06:46:25.484Z,24.07
2017-12-15T06:48:52.345Z,32.33
2017-12-15T06:51:19.197Z,22.43
2017-12-15T06:53:45.327Z,18.80
2017-12-15T06:56:12.172Z,16.53
2017-12-15T06:58:38.257Z,22.93
2017-12-15T07:01:04.404Z,17.13
2017-12-15T07:03:30.573Z,15.10
2017-12-15T07:05:56.677Z,14.37
2017-12-15T07:08:22.779Z,15.33
2017-12-15T07:10:49.709Z,25.00
2017-12-15T07:13:15.872Z,12.63
2017-12-15T07:15:42.736Z,15.70
2017-12-15T07:18:08.853Z,16.30
2017-12-15T07:20:35.016Z,16.53
2017-12-15T07:23:02.000Z,12.30
2017-12-15T07:25:28.789Z,19.90
2017-12-15T07:27:54.883Z,18.77
2017-12-15T07:30:21.050Z,17.97
2017-12-15T07:32:47.216Z,13.10
2017-12-15T07:35:13.332Z,17.87
2017-12-15T07:37:39.473Z,16.23
2017-12-15T07:40:05.557Z,18.60
2017-12-15T07:42:31.690Z,18.83
2017-12-15T07:44:58.552Z,20.50
2017-12-15T07:47:24.692Z,24.80
2017-12-15T07:49:50.776Z,18.13
2017-12-15T07:52:16.900Z,19.07
2017-12-15T07:54:43.027Z,10.77
2017-12-15T07:57:10.134Z,17.37
2017-12-15T07:59:36.256Z,19.63
2017-12-15T08:02:02.395Z,12.17
2017-12-15T08:04:28.565Z,16.67
2017-12-15T08:06:54.708Z,13.77
2017-12-15T08:09:21.589Z,17.07
2017-12-15T08:11:47.673Z,26.30
2017-12-15T08:14:13.806Z,16.70
2017-12-15T08:16:40.002Z,15.67
2017-12-15T08:19:06.172Z,16.30
2017-12-15T08:21:32.300Z,18.13
2017-12-15T08:23:58.404Z,11.47
2017-12-15T08:26:25.244Z,15.47
2017-12-15T08:28:52.117Z,14.93
2017-12-15T08:31:18.212Z,13.80
2017-12-15T08:33:44.365Z,15.20
2017-12-15T08:36:10.511Z,10.03
2017-12-15T08:38:36.629Z,15.67
2017-12-15T08:41:02.865Z,17.10
2017-12-15T08:43:29.001Z,17.33
2017-12-15T08:45:55.117Z,18.93
2017-12-15T08:48:22.058Z,15.20
2017-12-15T08:50:48.210Z,15.67
2017-12-15T08:53:14.316Z,17.13
2017-12-15T08:55:40.413Z,18.17
2017-12-15T08:58:06.976Z,20.43
2017-12-15T09:00:33.123Z,14.23
2017-12-15T09:02:59.226Z,21.80
2017-12-15T09:05:25.332Z,15.33
2017-12-15T09:07:51.437Z,32.90
2017-12-15T09:10:17.547Z,16.40
2017-12-15T09:12:43.697Z,23.47
2017-12-15T09:15:12.543Z,20.40
2017-12-15T09:17:35.933Z,27.60
2017-12-15T09:20:02.077Z,24.20
2017-12-15T09:22:28.166Z,21.60
2017-12-15T09:24:54.260Z,21.57
2017-12-15T09:27:20.372Z,24.20
2017-12-15T09:29:46.526Z,18.63
2017-12-15T09:32:12.604Z,17.53
2017-12-15T09:34:38.748Z,19.40
2017-12-15T09:37:04.840Z,18.93
2017-12-15T09:39:31.002Z,20.00
2017-12-15T09:41:57.143Z,19.33
2017-12-15T09:44:23.284Z,16.60
2017-12-15T09:46:51.128Z,17.00
2017-12-15T09:49:19.024Z,33.60
2017-12-15T09:51:46.852Z,16.50
2017-12-15T09:54:14.680Z,15.20
2017-12-15T09:56:42.547Z,18.10
2017-12-15T09:59:10.431Z,17.27
2017-12-15T10:01:38.383Z,13.97
2017-12-15T10:04:06.355Z,15.97
2017-12-15T10:06:34.279Z,12.63
2017-12-15T10:09:02.190Z,16.97
2017-12-15T10:11:30.088Z,15.60
2017-12-15T10:13:58.010Z,15.57
2017-12-15T10:16:25.847Z,13.40
2017-12-15T10:18:53.799Z,14.40
2017-12-15T10:21:21.655Z,14.40
2017-12-15T10:23:49.553Z,13.03
2017-12-15T10:26:17.484Z,12.77
2017-12-15T10:28:45.403Z,14.63
2017-12-15T10:31:13.322Z,11.57
2017-12-15T10:33:41.188Z,15.33
2017-12-15T10:36:09.120Z,15.03
2017-12-15T10:38:37.050Z,16.73
2017-12-15T10:41:05.032Z,13.60
2017-12-15T10:43:32.876Z,16.73
2017-12-15T10:46:00.723Z,14.90
2017-12-15T10:48:28.591Z,14.23
2017-12-15T10:50:56.428Z,14.30
2017-12-15T10:53:24.289Z,21.43
2017-12-15T10:55:50.487Z,18.37
2017-12-15T10:58:18.412Z,15.70
2017-12-15T11:00:46.281Z,19.23
2017-12-15T11:03:14.134Z,26.33
2017-12-15T11:05:41.963Z,20.77
2017-12-15T11:08:09.831Z,49.83
2017-12-15T11:10:37.749Z,20.50
2017-12-15T11:13:05.658Z,20.97
2017-12-15T11:15:33.678Z,19.37
2017-12-15T11:18:01.613Z,24.00
2017-12-15T11:20:29.532Z,18.00
2017-12-15T11:22:57.406Z,22.50
2017-12-15T11:25:25.279Z,30.33
2017-12-15T11:30:27.697Z,22.13
2017-12-15T11:32:55.539Z,28.13
2017-12-15T11:35:23.451Z,22.93
2017-12-15T11:37:51.369Z,24.70
2017-12-15T11:40:19.228Z,25.93
2017-12-15T11:42:47.079Z,26.07
2017-12-15T11:45:14.967Z,23.73
2017-12-15T11:47:42.862Z,31.70
2017-12-15T11:50:10.728Z,31.63
2017-12-15T11:52:38.621Z,25.47
2017-12-15T11:55:06.532Z,24.23
2017-12-15T11:57:34.560Z,25.40
2017-12-15T12:00:02.481Z,34.37
2017-12-15T12:02:30.494Z,19.77
2017-12-15T12:05:00.503Z,27.23
2017-12-15T12:07:29.020Z,24.07
2017-12-15T12:09:56.980Z,26.30
2017-12-15T12:12:24.844Z,18.10
2017-12-15T12:14:52.707Z,17.70
2017-12-15T12:17:20.560Z,17.67
2017-12-15T12:19:50.436Z,17.67
2017-12-15T12:22:18.460Z,19.33
2017-12-15T12:24:46.395Z,14.33
2017-12-15T12:27:14.296Z,13.70
2017-12-15T12:29:42.208Z,15.80
2017-12-15T12:32:10.137Z,13.90
2017-12-15T12:34:38.008Z,19.03
2017-12-15T12:37:06.056Z,19.03
2017-12-15T12:39:33.954Z,14.87
2017-12-15T12:42:01.861Z,17.93
2017-12-15T12:44:29.810Z,15.00
2017-12-15T12:46:57.733Z,15.40
2017-12-15T12:49:25.617Z,16.30
2017-12-15T12:51:53.504Z,21.07
2017-12-15T12:54:21.351Z,13.60
2017-12-15T12:56:49.187Z,17.73
2017-12-15T12:59:17.100Z,22.00
2017-12-15T13:01:44.969Z,17.07
2017-12-15T13:04:12.846Z,21.33
2017-12-15T13:06:41.811Z,14.67
2017-12-15T13:09:09.769Z,27.23
2017-12-15T13:11:37.666Z,33.03
2017-12-15T13:14:05.707Z,27.60
2017-12-15T13:16:33.619Z,23.87
2017-12-15T13:19:02.644Z,21.63
2017-12-15T13:21:30.643Z,30.37
2017-12-15T13:23:58.570Z,34.20
2017-12-15T13:26:26.640Z,33.33
2017-12-15T13:28:54.600Z,21.03
2017-12-15T13:31:22.477Z,22.40
2017-12-15T13:33:50.370Z,83.13
2017-12-15T13:36:18.308Z,58.87
2017-12-15T13:38:46.165Z,32.97
2017-12-15T13:41:14.053Z,43.47
2017-12-15T13:43:42.804Z,28.80
2017-12-15T13:46:10.653Z,26.80
2017-12-15T13:48:38.536Z,29.87
2017-12-15T13:51:06.409Z,31.17
2017-12-15T13:53:34.421Z,32.10
2017-12-15T13:56:02.269Z,35.67
2017-12-15T13:58:30.160Z,43.10
2017-12-15T14:00:58.009Z,37.80
2017-12-15T14:03:25.877Z,46.40
2017-12-15T14:05:53.821Z,52.80
2017-12-15T14:08:21.726Z,46.50
2017-12-15T14:10:49.576Z,44.20
2017-12-15T14:13:17.511Z,48.87
2017-12-15T14:15:45.369Z,50.57
2017-12-15T14:18:13.253Z,51.27
2017-12-15T14:20:41.173Z,50.00
2017-12-15T14:23:09.048Z,49.70
2017-12-15T14:25:36.898Z,48.90
2017-12-15T14:28:04.913Z,60.30
2017-12-15T14:30:32.799Z,50.53
2017-12-15T14:33:00.785Z,50.50
2017-12-15T14:35:28.660Z,55.93
2017-12-15T14:37:56.620Z,49.90
2017-12-15T14:40:24.632Z,49.93
2017-12-15T14:42:52.575Z,52.53
2017-12-15T14:45:20.576Z,62.03
2017-12-15T14:47:48.431Z,72.03
2017-12-15T14:50:16.344Z,60.90
2017-12-15T14:52:44.175Z,52.90
2017-12-15T14:55:12.022Z,55.73
2017-12-15T14:57:39.912Z,57.03
2017-12-15T15:00:07.834Z,50.97
2017-12-15T15:02:35.838Z,50.97
2017-12-15T15:05:03.807Z,52.27
2017-12-15T15:07:32.548Z,48.87
2017-12-15T15:10:00.475Z,59.50
2017-12-15T15:12:28.404Z,65.03
2017-12-15T15:14:56.252Z,55.77
2017-12-15T15:17:24.104Z,50.43
2017-12-15T15:19:52.250Z,52.30
2017-12-15T15:22:20.166Z,51.00
2017-12-15T15:24:48.038Z,57.20
2017-12-15T15:27:15.911Z,56.70
2017-12-15T15:29:43.824Z,50.70
2017-12-15T15:32:11.684Z,56.57
2017-12-15T15:34:39.619Z,58.30
2017-12-15T15:37:07.475Z,56.47
2017-12-15T15:39:35.388Z,57.73
2017-12-15T15:42:03.308Z,58.50
2017-12-15T15:44:31.169Z,54.47
2017-12-15T15:46:59.213Z,53.83
2017-12-15T15:49:27.093Z,66.10
2017-12-15T15:51:54.989Z,66.57
2017-12-15T15:54:22.828Z,64.80
2017-12-15T15:56:50.714Z,68.87
2017-12-15T16:01:53.214Z,60.97
2017-12-15T16:04:21.114Z,57.73
2017-12-15T16:06:49.097Z,58.40
2017-12-15T16:09:17.001Z,77.27
2017-12-15T16:11:44.845Z,59.97
2017-12-15T16:14:12.745Z,58.53
2017-12-15T16:16:40.615Z,46.93
2017-12-15T16:19:08.472Z,61.00
2017-12-15T16:21:36.525Z,67.07
2017-12-15T16:24:04.472Z,59.60
2017-12-15T16:26:32.329Z,67.93
2017-12-15T16:29:00.415Z,56.10
2017-12-15T16:31:29.809Z,57.83
2017-12-15T16:33:57.628Z,56.43
2017-12-15T16:36:25.478Z,61.43
2017-12-15T16:38:53.353Z,65.27
2017-12-15T16:41:21.192Z,65.63
2017-12-15T16:43:49.140Z,60.73
2017-12-15T16:46:17.023Z,60.40
2017-12-15T16:48:44.868Z,65.90
2017-12-15T16:51:12.849Z,59.07
2017-12-15T16:53:40.823Z,56.00
2017-12-15T16:56:08.704Z,58.03
2017-12-15T16:58:36.556Z,70.60
2017-12-15T17:01:04.427Z,65.93
2017-12-15T17:03:32.292Z,64.03
2017-12-15T17:06:00.134Z,59.33
2017-12-15T17:08:28.002Z,64.00
2017-12-15T17:10:55.880Z,74.30
2017-12-15T17:13:23.736Z,69.70
2017-12-15T17:15:51.604Z,61.73
2017-12-15T17:18:19.477Z,64.80
2017-12-15T17:20:47.365Z,62.93
2017-12-15T17:23:15.237Z,62.13
2017-12-15T17:25:43.171Z,77.33
2017-12-15T17:28:11.068Z,56.60
2017-12-15T17:30:38.935Z,74.77
2017-12-15T17:33:06.793Z,57.60
2017-12-15T17:35:34.665Z,65.40
2017-12-15T17:38:02.611Z,62.27
2017-12-15T17:40:30.483Z,61.33
2017-12-15T17:42:58.365Z,63.93
2017-12-15T17:45:26.250Z,61.60
2017-12-15T17:47:54.156Z,72.37
2017-12-15T17:50:22.008Z,62.63
2017-12-15T17:52:49.880Z,61.40
2017-12-15T17:55:17.812Z,77.63
2017-12-15T17:57:45.732Z,62.97
2017-12-15T18:00:13.624Z,68.80
2017-12-15T18:02:41.491Z,61.73
2017-12-15T18:05:09.377Z,66.53
2017-12-15T18:07:37.248Z,58.50
2017-12-15T18:10:05.147Z,70.77
2017-12-15T18:12:33.055Z,79.90
2017-12-15T18:15:01.054Z,69.17
2017-12-15T18:17:28.925Z,69.77
2017-12-15T18:19:56.771Z,116.93
2017-12-15T18:22:24.754Z,93.67
2017-12-15T18:24:52.647Z,68.67
2017-12-15T18:27:20.496Z,80.20
2017-12-15T18:29:48.388Z,75.40
2017-12-15T18:32:16.258Z,72.57
2017-12-15T18:34:44.096Z,77.80
2017-12-15T18:37:11.979Z,78.70
2017-12-15T18:39:39.844Z,75.03
2017-12-15T18:42:07.684Z,69.93
2017-12-15T18:44:35.639Z,72.43
2017-12-15T18:47:03.560Z,73.63
2017-12-15T18:49:31.452Z,67.43
2017-12-15T18:51:59.333Z,73.10
2017-12-15T18:54:27.188Z,65.40
2017-12-15T18:56:55.109Z,67.00
2017-12-15T18:59:23.024Z,69.57
2017-12-15T19:01:50.883Z,65.70
2017-12-15T19:04:18.725Z,74.23
2017-12-15T19:06:46.592Z,74.23
2017-12-15T19:09:14.450Z,72.60
2017-12-15T19:11:42.283Z,84.97
2017-12-15T19:14:10.155Z,78.47
2017-12-15T19:16:38.021Z,61.03
2017-12-15T19:19:05.863Z,68.43
2017-12-15T19:21:33.939Z,72.03
2017-12-15T19:24:01.804Z,75.50
2017-12-15T19:26:29.756Z,70.27
2017-12-15T19:28:57.651Z,71.23
2017-12-15T19:31:25.497Z,64.00
2017-12-15T19:33:53.365Z,61.20
2017-12-15T19:36:21.251Z,66.63
2017-12-15T19:38:49.124Z,71.70
2017-12-15T19:41:17.586Z,59.83
2017-12-15T19:43:45.484Z,59.93
2017-12-15T19:46:13.349Z,58.40
2017-12-15T19:48:41.217Z,56.90
2017-12-15T19:51:09.100Z,56.03
2017-12-15T19:53:36.949Z,63.77
2017-12-15T19:56:04.806Z,67.83
2017-12-15T19:58:33.006Z,66.17
2017-12-15T20:01:00.927Z,61.70
2017-12-15T20:03:28.897Z,56.53
2017-12-15T20:05:56.785Z,63.43
2017-12-15T20:08:25.252Z,54.17
2017-12-15T20:10:53.099Z,56.90
2017-12-15T20:13:20.961Z,56.37
2017-12-15T20:15:48.830Z,55.70
2017-12-15T20:18:16.667Z,53.97
2017-12-15T20:20:44.545Z,61.10
2017-12-15T20:23:12.446Z,58.63
2017-12-15T20:25:40.360Z,64.57
2017-12-15T20:28:08.305Z,59.30
2017-12-15T20:30:36.244Z,55.20
2017-12-15T20:33:04.080Z,52.70
2017-12-15T20:35:31.980Z,49.50
2017-12-15T20:37:59.847Z,52.27
2017-12-15T20:40:27.687Z,51.20
2017-12-15T20:42:55.582Z,51.10
2017-12-15T20:45:23.451Z,48.40
2017-12-15T20:47:51.336Z,47.43
2017-12-15T20:50:19.852Z,40.33
2017-12-15T20:52:47.703Z,47.70
2017-12-15T20:55:15.530Z,48.80
2017-12-15T20:57:43.388Z,47.17
2017-12-15T21:00:11.334Z,46.73
2017-12-15T21:02:39.168Z,44.37
2017-12-15T21:05:07.101Z,60.70
2017-12-15T21:07:34.998Z,53.20
2017-12-15T21:10:02.849Z,45.30
2017-12-15T21:12:30.822Z,46.70
2017-12-15T21:14:58.716Z,49.57
2017-12-15T21:17:26.572Z,47.83
2017-12-15T21:19:54.511Z,48.43
2017-12-15T21:22:22.345Z,52.57
2017-12-15T21:24:50.218Z,51.37
2017-12-15T21:27:18.215Z,55.00
2017-12-15T21:29:46.068Z,53.47
2017-12-15T21:32:13.957Z,48.03
2017-12-15T21:34:41.833Z,59.13
2017-12-15T21:37:09.832Z,51.13
2017-12-15T21:39:37.696Z,49.03
2017-12-15T21:42:05.582Z,56.63
2017-12-15T21:44:33.487Z,48.40
2017-12-15T21:47:01.344Z,51.77
2017-12-15T21:49:30.101Z,43.90
2017-12-15T21:51:58.012Z,47.97
2017-12-15T21:54:25.864Z,46.10
2017-12-15T21:56:53.741Z,50.30
2017-12-15T21:59:21.583Z,46.80
2017-12-15T22:01:49.473Z,40.37
2017-12-15T22:04:17.356Z,48.10
2017-12-15T22:06:45.210Z,48.47
2017-12-15T22:09:13.041Z,43.03
2017-12-15T22:11:40.976Z,47.47
2017-12-15T22:14:08.824Z,45.30
2017-12-15T22:16:36.668Z,45.43
2017-12-15T22:19:04.549Z,47.17
2017-12-15T22:21:32.400Z,42.53
2017-12-15T22:24:00.251Z,44.00
2017-12-15T22:26:28.132Z,65.47
2017-12-15T22:28:56.012Z,38.13
2017-12-15T22:31:23.856Z,47.10
2017-12-15T22:33:51.801Z,39.63
2017-12-15T22:36:19.631Z,45.50
2017-12-15T22:38:47.492Z,43.30
2017-12-15T22:41:15.368Z,44.00
2017-12-15T22:43:43.197Z,47.70
2017-12-15T22:46:11.074Z,52.47
2017-12-15T22:48:38.936Z,40.73
2017-12-15T22:51:06.828Z,42.70
2017-12-15T22:53:34.688Z,42.40
2017-12-15T22:56:02.564Z,48.03
2017-12-15T22:58:30.472Z,49.90
2017-12-15T23:00:58.320Z,41.13
2017-12-15T23:03:26.259Z,42.30
2017-12-15T23:05:54.091Z,29.97
2017-12-15T23:08:21.939Z,41.80
2017-12-15T23:10:49.831Z,41.60
2017-12-15T23:13:17.656Z,36.70
2017-12-15T23:15:45.514Z,51.13
2017-12-15T23:18:13.383Z,36.27
2017-12-15T23:20:41.248Z,46.40
2017-12-15T23:23:09.083Z,36.03
2017-12-15T23:25:36.983Z,39.17
2017-12-15T23:28:04.833Z,40.73
2017-12-15T23:30:32.668Z,41.03
2017-12-15T23:33:00.544Z,34.00
2017-12-15T23:35:28.372Z,29.57
2017-12-15T23:37:56.212Z,36.27
2017-12-15T23:40:24.076Z,35.20
2017-12-15T23:42:51.924Z,37.17
2017-12-15T23:45:19.792Z,42.53
2017-12-15T23:47:47.653Z,36.63
2017-12-15T23:50:15.508Z,36.73
2017-12-15T23:52:43.352Z,36.80
2017-12-15T23:55:17.528Z,44.83
2017-12-15T23:57:45.379Z,37.30
